createdAt,value
2023-07-11T00:04:19.595Z,21.65
2023-07-11T00:09:22.746Z,21.54
2023-07-11T00:14:24.718Z,21.51
2023-07-11T00:19:26.473Z,21.48
2023-07-11T00:24:28.156Z,21.52
2023-07-11T00:29:29.806Z,21.44
2023-07-11T00:34:33.946Z,21.47
2023-07-11T00:39:36.782Z,21.38
2023-07-11T00:44:58.426Z,21.29
2023-07-11T00:50:04.914Z,21.25
2023-07-11T00:55:11.398Z,21.14
2023-07-11T01:00:13.823Z,21.06
2023-07-11T01:05:15.576Z,21.18
2023-07-11T01:10:17.489Z,21.14
2023-07-11T01:15:19.129Z,21.04
2023-07-11T01:20:24.090Z,21.03
2023-07-11T01:25:25.817Z,21.08
2023-07-11T01:30:27.688Z,21.06
2023-07-11T01:35:29.384Z,21.02
2023-07-11T01:40:31.173Z,21.00
2023-07-11T01:45:33.940Z,20.93
2023-07-11T01:50:36.649Z,20.83
2023-07-11T01:55:38.509Z,20.81
2023-07-11T02:00:40.810Z,20.82
2023-07-11T02:05:42.648Z,20.83
2023-07-11T02:10:44.932Z,20.80
2023-07-11T02:15:46.672Z,20.81
2023-07-11T02:20:48.706Z,20.74
2023-07-11T02:25:54.364Z,20.64
2023-07-11T02:30:56.499Z,20.59
2023-07-11T02:35:58.168Z,20.52
2023-07-11T02:40:59.787Z,20.48
2023-07-11T02:46:01.784Z,20.47
2023-07-11T02:51:03.988Z,20.43
2023-07-11T02:56:06.098Z,20.38
2023-07-11T03:01:08.306Z,20.32
2023-07-11T03:06:10.327Z,20.31
2023-07-11T03:11:11.953Z,20.29
2023-07-11T03:16:13.872Z,20.25
2023-07-11T03:21:15.584Z,20.19
2023-07-11T03:26:17.279Z,20.20
2023-07-11T03:31:19.264Z,20.20
2023-07-11T03:36:21.736Z,20.12
2023-07-11T03:41:25.514Z,20.06
2023-07-11T03:46:27.283Z,20.01
2023-07-11T03:51:29.158Z,19.96
2023-07-11T03:56:30.891Z,20.02
2023-07-11T04:01:34.857Z,19.96
2023-07-11T04:06:36.766Z,19.96
2023-07-11T04:11:38.437Z,19.93
2023-07-11T04:16:40.258Z,19.84
2023-07-11T04:21:42.109Z,19.84
2023-07-11T04:26:44.036Z,19.89
2023-07-11T04:31:45.779Z,19.86
2023-07-11T04:36:47.521Z,19.80
2023-07-11T04:41:49.337Z,19.74
2023-07-11T04:46:51.150Z,19.78
2023-07-11T04:51:52.961Z,19.81
2023-07-11T04:56:59.629Z,19.84
2023-07-11T05:02:03.604Z,19.87
2023-07-11T05:07:05.769Z,19.88
2023-07-11T05:12:07.767Z,19.95
2023-07-11T05:17:09.598Z,20.06
2023-07-11T05:22:11.411Z,20.09
2023-07-11T05:27:13.285Z,20.12
2023-07-11T05:32:15.797Z,20.24
2023-07-11T05:37:17.641Z,20.38
2023-07-11T05:42:19.318Z,20.49
2023-07-11T05:47:21.176Z,20.54
2023-07-11T05:52:23.065Z,20.58
2023-07-11T05:57:24.802Z,20.63
2023-07-11T06:02:26.513Z,20.76
2023-07-11T06:07:29.630Z,20.84
2023-07-11T06:12:31.801Z,20.99
2023-07-11T06:17:34.388Z,21.02
2023-07-11T06:22:36.999Z,21.10
2023-07-11T06:27:38.653Z,21.17
2023-07-11T06:32:40.860Z,21.23
2023-07-11T06:37:42.824Z,21.19
2023-07-11T06:42:44.564Z,21.28
2023-07-11T06:47:46.285Z,21.30
2023-07-11T06:52:47.990Z,21.36
2023-07-11T06:57:49.647Z,21.57
2023-07-11T07:02:51.400Z,21.66
2023-07-11T07:08:05.180Z,21.86
2023-07-11T07:13:16.280Z,21.99
2023-07-11T07:18:18.766Z,22.12
2023-07-11T07:23:21.182Z,22.31
2023-07-11T07:28:23.667Z,22.37
2023-07-11T07:33:27.590Z,22.47
2023-07-11T07:38:29.962Z,22.59
2023-07-11T07:43:34.028Z,22.75
2023-07-11T07:48:35.895Z,22.83
2023-07-11T07:53:37.965Z,22.93
2023-07-11T07:58:43.956Z,22.87
2023-07-11T08:03:46.899Z,22.90
2023-07-11T08:08:50.081Z,22.83
2023-07-11T08:14:00.106Z,22.91
2023-07-11T08:19:07.270Z,22.87
2023-07-11T08:24:09.744Z,22.80
2023-07-11T08:29:24.258Z,22.77
2023-07-11T08:34:30.990Z,22.68
2023-07-11T08:39:35.291Z,22.93
2023-07-11T08:44:51.384Z,23.20
2023-07-11T08:50:03.386Z,23.34
2023-07-11T08:55:25.342Z,23.47
2023-07-11T09:00:27.924Z,23.44
2023-07-11T09:05:33.598Z,23.52
2023-07-11T09:10:58.134Z,23.88
2023-07-11T09:16:57.704Z,23.45
2023-07-11T09:22:19.081Z,23.68
2023-07-11T09:27:38.279Z,23.96
2023-07-11T09:32:40.994Z,24.03
2023-07-11T09:37:47.812Z,24.24
2023-07-11T09:42:52.221Z,23.90
2023-07-11T09:48:04.621Z,23.92
2023-07-11T09:53:14.428Z,24.22
2023-07-11T09:58:17.756Z,24.34
2023-07-11T10:03:24.452Z,24.72
2023-07-11T10:08:49.412Z,24.89
2023-07-11T10:13:57.782Z,24.70
2023-07-11T10:18:59.519Z,24.69
2023-07-11T10:24:02.159Z,24.81
2023-07-11T10:29:19.693Z,24.85
2023-07-11T10:34:36.311Z,24.74
2023-07-11T10:39:50.996Z,24.65
2023-07-11T10:45:18.504Z,24.89
2023-07-11T10:50:45.400Z,25.27
2023-07-11T10:55:57.144Z,25.37
2023-07-11T11:01:17.464Z,25.41
2023-07-11T11:06:58.663Z,25.55
2023-07-11T11:12:13.927Z,25.98
2023-07-11T11:17:47.470Z,25.69
2023-07-11T11:23:03.415Z,25.75
2023-07-11T11:28:44.588Z,25.29
2023-07-11T11:33:58.068Z,25.20
2023-07-11T11:39:38.834Z,25.25
2023-07-11T11:54:59.454Z,25.48
2023-07-11T12:00:03.720Z,25.52
2023-07-11T12:05:20.711Z,25.55
2023-07-11T12:10:25.799Z,26.03
2023-07-11T12:15:38.168Z,25.92
2023-07-11T12:20:40.185Z,25.89
2023-07-11T12:25:41.985Z,25.64
2023-07-11T12:30:45.524Z,25.85
2023-07-11T12:35:54.347Z,25.80
2023-07-11T12:41:35.424Z,26.17
2023-07-11T12:46:50.027Z,26.25
2023-07-11T12:51:51.944Z,25.89
2023-07-11T12:56:53.974Z,26.37
2023-07-11T13:01:59.957Z,26.14
2023-07-11T13:07:04.029Z,26.01
2023-07-11T13:12:08.940Z,25.24
2023-07-11T13:17:14.492Z,25.72
2023-07-11T13:22:20.266Z,25.90
2023-07-11T13:27:28.811Z,25.92
2023-07-11T13:32:30.613Z,25.69
2023-07-11T13:37:41.299Z,25.55
2023-07-11T13:42:45.103Z,25.74
2023-07-11T13:47:49.164Z,25.82
2023-07-11T13:52:57.026Z,26.08
2023-07-11T13:58:00.138Z,25.92
2023-07-11T14:03:04.708Z,26.28
2023-07-11T14:08:09.838Z,26.24
2023-07-11T14:13:23.017Z,25.62
2023-07-11T14:18:25.350Z,25.89
2023-07-11T14:23:33.931Z,26.19
2023-07-11T14:28:36.073Z,26.28
2023-07-11T14:33:37.941Z,25.96
2023-07-11T14:38:39.635Z,25.93
2023-07-11T14:43:41.432Z,25.96
2023-07-11T14:48:43.050Z,25.66
2023-07-11T14:53:46.017Z,25.54
2023-07-11T14:58:50.841Z,25.87
2023-07-11T15:19:23.742Z,25.34
2023-07-11T15:24:26.011Z,25.20
2023-07-11T15:29:27.695Z,25.22
2023-07-11T15:34:29.637Z,25.34
2023-07-11T15:39:31.715Z,25.12
2023-07-11T15:44:43.411Z,25.50
2023-07-11T15:49:45.275Z,25.32
2023-07-11T15:54:47.306Z,25.67
2023-07-11T15:59:49.241Z,25.73
2023-07-11T16:04:51.450Z,25.71
2023-07-11T16:09:53.148Z,25.75
2023-07-11T16:14:55.684Z,25.62
2023-07-11T16:19:58.311Z,25.58
2023-07-11T16:25:01.604Z,25.66
2023-07-11T16:30:27.039Z,25.58
2023-07-11T16:35:37.579Z,25.45
2023-07-11T16:40:39.734Z,25.71
2023-07-11T16:45:42.072Z,25.07
2023-07-11T16:50:43.877Z,24.72
2023-07-11T16:55:45.910Z,24.69
2023-07-11T17:00:49.059Z,24.19
2023-07-11T17:05:51.160Z,24.07
2023-07-11T17:10:55.461Z,24.14
2023-07-11T17:15:59.305Z,24.42
2023-07-11T17:21:02.042Z,24.18
2023-07-11T17:26:03.969Z,24.01
2023-07-11T17:31:05.922Z,24.09
2023-07-11T17:36:13.418Z,24.17
2023-07-11T17:41:16.769Z,24.09
2023-07-11T17:51:23.346Z,23.68
2023-07-11T17:56:29.582Z,23.84
2023-07-11T18:01:36.809Z,23.89
2023-07-11T18:06:39.403Z,23.72
2023-07-11T18:11:41.062Z,23.46
2023-07-11T18:16:43.699Z,23.38
2023-07-11T18:21:45.487Z,23.15
2023-07-11T18:26:47.288Z,23.03
2023-07-11T18:31:49.116Z,22.90
2023-07-11T18:36:50.788Z,23.03
2023-07-11T18:41:52.529Z,22.93
2023-07-11T18:46:54.604Z,22.79
2023-07-11T18:51:56.342Z,22.95
2023-07-11T18:56:58.605Z,22.63
2023-07-11T19:02:00.453Z,22.57
2023-07-11T19:07:02.130Z,22.64
2023-07-11T19:12:19.007Z,22.49
2023-07-11T19:17:35.626Z,22.43
2023-07-11T19:22:41.841Z,22.32
2023-07-11T19:27:46.235Z,22.28
2023-07-11T19:32:50.508Z,22.25
2023-07-11T19:37:55.010Z,22.17
2023-07-11T19:43:00.576Z,22.22
2023-07-11T19:48:04.007Z,22.21
2023-07-11T19:53:08.877Z,22.05
2023-07-11T19:58:17.697Z,22.01
2023-07-11T20:03:19.403Z,22.00
2023-07-11T20:08:24.529Z,21.74
2023-07-11T20:13:29.799Z,21.86
2023-07-11T20:18:33.746Z,21.86
2023-07-11T20:23:36.425Z,21.69
2023-07-11T20:28:38.091Z,21.72
2023-07-11T20:33:40.697Z,21.71
2023-07-11T20:38:42.811Z,21.60
2023-07-11T20:43:45.544Z,21.46
2023-07-11T20:48:48.674Z,21.47
2023-07-11T20:53:50.387Z,21.31
2023-07-11T20:58:56.073Z,21.37
2023-07-11T21:03:58.090Z,21.37
2023-07-11T21:09:00.906Z,21.38
2023-07-11T21:14:03.805Z,21.31
2023-07-11T21:19:07.123Z,21.29
2023-07-11T21:24:09.403Z,21.39
2023-07-11T21:29:14.308Z,21.21
2023-07-11T21:34:16.596Z,21.20
2023-07-11T21:39:18.542Z,20.89
2023-07-11T21:44:20.256Z,20.87
2023-07-11T21:49:22.639Z,20.80
2023-07-11T21:54:24.360Z,20.80
2023-07-11T21:59:26.185Z,20.72
2023-07-11T22:04:27.855Z,20.64
2023-07-11T22:09:29.570Z,20.61
2023-07-11T22:14:31.203Z,20.68
2023-07-11T22:19:35.327Z,20.35
2023-07-11T22:24:38.365Z,20.39
2023-07-11T22:29:40.002Z,20.31
2023-07-11T22:34:43.690Z,20.21
2023-07-11T22:39:45.419Z,20.19
2023-07-11T22:44:47.046Z,20.04
2023-07-11T22:49:48.801Z,20.07
2023-07-11T22:54:50.947Z,19.96
2023-07-11T22:59:52.631Z,20.03
2023-07-11T23:04:54.697Z,20.14
2023-07-11T23:09:56.451Z,20.21
2023-07-11T23:14:58.125Z,20.18
2023-07-11T23:19:59.956Z,20.14
2023-07-11T23:25:04.158Z,20.13
2023-07-11T23:30:15.934Z,20.17
2023-07-11T23:35:19.318Z,20.18
2023-07-11T23:40:24.448Z,20.20
2023-07-11T23:45:29.831Z,20.12
2023-07-11T23:50:37.326Z,20.07
2023-07-11T23:55:38.976Z,19.93
